createdAt,value
2022-10-17T00:00:01.214Z,31.90
2022-10-17T00:01:01.050Z,32.60
2022-10-17T00:02:01.287Z,41.00
2022-10-17T00:03:01.613Z,41.37
2022-10-17T00:04:01.205Z,41.70
2022-10-17T00:05:00.932Z,41.67
2022-10-17T00:06:06.155Z,45.80
2022-10-17T00:07:01.243Z,42.03
2022-10-17T00:08:01.232Z,42.27
2022-10-17T00:09:01.036Z,43.20
2022-10-17T00:10:01.236Z,46.67
2022-10-17T00:11:03.811Z,44.40
2022-10-17T00:12:01.294Z,45.07
2022-10-17T00:13:01.645Z,44.63
2022-10-17T00:14:01.735Z,45.13
2022-10-17T00:15:04.799Z,45.33
2022-10-17T00:16:00.986Z,40.17
2022-10-17T00:17:01.001Z,40.47
2022-10-17T00:18:01.488Z,43.67
2022-10-17T00:19:01.572Z,43.37
2022-10-17T00:20:01.233Z,45.83
2022-10-17T00:21:01.264Z,47.73
2022-10-17T00:22:01.234Z,48.70
2022-10-17T00:23:00.948Z,45.70
2022-10-17T00:24:01.251Z,43.60
2022-10-17T00:25:01.267Z,41.17
2022-10-17T00:26:03.200Z,38.57
2022-10-17T00:27:00.979Z,39.53
2022-10-17T00:28:00.925Z,31.93
2022-10-17T00:29:01.030Z,35.53
2022-10-17T00:30:01.401Z,33.20
2022-10-17T00:31:03.922Z,27.53
2022-10-17T00:32:00.976Z,31.10
2022-10-17T00:33:00.929Z,35.30
2022-10-17T00:34:01.383Z,31.00
2022-10-17T00:35:01.092Z,29.13
2022-10-17T00:36:04.692Z,31.57
2022-10-17T00:37:01.111Z,32.40
2022-10-17T00:38:00.933Z,30.57
2022-10-17T00:39:01.253Z,35.43
2022-10-17T00:40:01.259Z,35.43
2022-10-17T00:41:01.481Z,31.60
2022-10-17T00:42:01.131Z,32.30
2022-10-17T00:43:00.957Z,28.17
2022-10-17T00:44:04.205Z,29.47
2022-10-17T00:45:14.648Z,26.37
2022-10-17T00:46:01.240Z,28.50
2022-10-17T00:47:05.224Z,29.77
2022-10-17T00:48:06.109Z,27.53
2022-10-17T00:49:05.584Z,28.13
2022-10-17T00:51:00.970Z,29.40
2022-10-17T00:52:04.308Z,27.13
2022-10-17T00:53:03.682Z,26.67
2022-10-17T00:54:03.171Z,27.63
2022-10-17T00:55:06.466Z,25.87
2022-10-17T00:56:01.278Z,25.70
2022-10-17T00:57:02.600Z,28.53
2022-10-17T00:58:03.938Z,30.27
2022-10-17T00:59:02.673Z,30.37
2022-10-17T01:00:06.206Z,28.77
2022-10-17T01:01:02.754Z,26.97
2022-10-17T01:02:04.595Z,29.00
2022-10-17T01:03:00.939Z,28.43
2022-10-17T01:04:01.017Z,29.43
2022-10-17T01:05:01.664Z,29.03
2022-10-17T01:06:01.317Z,33.23
2022-10-17T01:07:00.951Z,30.97
2022-10-17T01:08:01.992Z,26.57
2022-10-17T01:09:01.466Z,29.57
2022-10-17T01:10:01.863Z,30.37
2022-10-17T01:11:12.662Z,30.40
2022-10-17T01:12:11.047Z,28.77
2022-10-17T01:13:09.700Z,26.57
2022-10-17T01:14:08.317Z,29.93
2022-10-17T01:15:10.327Z,30.27
2022-10-17T01:16:11.186Z,30.57
2022-10-17T01:17:15.012Z,30.70
2022-10-17T01:18:14.755Z,28.97
2022-10-17T01:19:15.626Z,28.83
2022-10-17T01:20:20.401Z,30.00
2022-10-17T01:21:16.687Z,32.73
2022-10-17T01:22:09.023Z,27.10
2022-10-17T01:23:18.945Z,28.13
2022-10-17T01:24:20.421Z,26.53
2022-10-17T01:25:20.417Z,29.37
2022-10-17T01:26:13.594Z,29.00
2022-10-17T01:27:20.437Z,31.63
2022-10-17T01:28:18.696Z,27.70
2022-10-17T01:29:20.430Z,29.07
2022-10-17T01:30:20.412Z,30.57
2022-10-17T01:31:09.191Z,29.93
2022-10-17T01:32:08.217Z,28.30
2022-10-17T01:33:10.091Z,28.33
2022-10-17T01:34:08.461Z,25.90
2022-10-17T01:35:08.751Z,29.17
2022-10-17T01:36:07.341Z,27.63
2022-10-17T01:37:06.061Z,28.90
2022-10-17T01:38:09.487Z,26.47
2022-10-17T01:39:10.650Z,27.00
2022-10-17T01:40:09.564Z,24.37
2022-10-17T01:41:06.661Z,26.47
2022-10-17T01:42:09.937Z,25.47
2022-10-17T01:43:06.151Z,27.20
2022-10-17T01:44:09.462Z,28.77
2022-10-17T01:45:08.387Z,24.93
2022-10-17T01:46:08.477Z,26.57
2022-10-17T01:47:05.748Z,27.77
2022-10-17T01:48:06.871Z,27.43
2022-10-17T01:49:03.848Z,29.97
2022-10-17T01:50:05.896Z,29.47
2022-10-17T01:51:07.610Z,29.83
2022-10-17T01:52:08.190Z,30.10
2022-10-17T01:53:07.110Z,25.73
2022-10-17T01:54:06.435Z,26.90
2022-10-17T01:55:07.345Z,26.63
2022-10-17T01:56:03.780Z,25.33
2022-10-17T01:57:07.214Z,26.00
2022-10-17T01:58:08.557Z,25.50
2022-10-17T01:59:08.572Z,29.93
2022-10-17T02:00:03.740Z,26.70
2022-10-17T02:01:05.289Z,27.57
2022-10-17T02:02:02.255Z,25.20
2022-10-17T02:03:06.546Z,26.63
2022-10-17T02:04:02.929Z,25.40
2022-10-17T02:05:03.558Z,28.07
2022-10-17T02:06:01.826Z,23.03
2022-10-17T02:07:06.504Z,24.67
2022-10-17T02:08:01.276Z,28.13
2022-10-17T02:09:01.348Z,25.33
2022-10-17T02:10:01.884Z,26.70
2022-10-17T02:11:06.119Z,24.97
2022-10-17T02:12:20.421Z,23.13
2022-10-17T02:13:09.126Z,24.73
2022-10-17T02:14:18.298Z,24.67
2022-10-17T02:15:16.693Z,26.83
2022-10-17T02:16:13.367Z,23.23
2022-10-17T02:17:12.994Z,25.03
2022-10-17T02:18:15.576Z,28.83
2022-10-17T02:19:15.074Z,20.83
2022-10-17T02:20:14.238Z,24.07
2022-10-17T02:21:08.281Z,23.00
2022-10-17T02:22:15.500Z,23.60
2022-10-17T02:23:11.075Z,20.60
2022-10-17T02:24:08.603Z,21.37
2022-10-17T02:25:08.947Z,19.23
2022-10-17T02:26:09.357Z,19.43
2022-10-17T02:27:05.919Z,20.80
2022-10-17T02:28:12.627Z,18.60
2022-10-17T02:29:07.659Z,21.10
2022-10-17T02:30:08.493Z,16.50
2022-10-17T02:31:06.369Z,20.63
2022-10-17T02:32:06.347Z,19.43
2022-10-17T02:33:07.209Z,20.50
2022-10-17T02:34:04.099Z,17.80
2022-10-17T02:35:05.055Z,17.57
2022-10-17T02:36:08.129Z,18.27
2022-10-17T02:37:04.750Z,20.00
2022-10-17T02:38:04.840Z,17.43
2022-10-17T02:39:04.386Z,18.80
2022-10-17T02:40:02.471Z,17.70
2022-10-17T02:41:02.920Z,16.33
2022-10-17T02:42:05.318Z,18.63
2022-10-17T02:43:00.982Z,15.67
2022-10-17T02:44:04.387Z,18.10
2022-10-17T02:45:04.143Z,18.43
2022-10-17T02:46:01.489Z,16.43
2022-10-17T02:47:09.265Z,21.17
2022-10-17T02:48:06.010Z,14.87
2022-10-17T02:49:10.078Z,16.43
2022-10-17T02:50:01.356Z,16.57
2022-10-17T02:51:05.715Z,15.30
2022-10-17T02:52:08.785Z,19.07
2022-10-17T02:53:07.812Z,16.97
2022-10-17T02:54:08.903Z,19.20
2022-10-17T02:55:09.169Z,18.10
2022-10-17T02:56:08.065Z,17.03
2022-10-17T02:57:09.928Z,18.77
2022-10-17T02:58:07.302Z,18.10
2022-10-17T02:59:05.798Z,19.23
2022-10-17T03:00:03.629Z,15.80
2022-10-17T03:01:01.164Z,15.80
2022-10-17T03:02:03.433Z,16.33
2022-10-17T03:03:00.967Z,19.47
2022-10-17T03:04:06.454Z,16.77
2022-10-17T03:05:01.219Z,14.03
2022-10-17T03:06:01.338Z,16.40
2022-10-17T03:07:01.271Z,18.20
2022-10-17T03:08:00.952Z,15.23
2022-10-17T03:09:00.956Z,13.60
2022-10-17T03:10:01.253Z,14.43
2022-10-17T03:11:01.671Z,16.00
2022-10-17T03:12:00.941Z,14.30
2022-10-17T03:13:01.225Z,15.17
2022-10-17T03:14:01.264Z,15.50
2022-10-17T03:15:00.976Z,16.23
2022-10-17T03:16:01.241Z,15.80
2022-10-17T03:17:00.936Z,16.37
2022-10-17T03:18:01.272Z,14.30
2022-10-17T03:19:01.029Z,15.07
2022-10-17T03:20:01.491Z,16.53
2022-10-17T03:21:01.345Z,12.90
2022-10-17T03:22:01.444Z,15.93
2022-10-17T03:23:01.458Z,15.50
2022-10-17T03:24:01.311Z,16.00
2022-10-17T03:25:01.422Z,15.83
2022-10-17T03:26:03.356Z,15.50
2022-10-17T03:27:00.977Z,14.23
2022-10-17T03:28:01.235Z,16.30
2022-10-17T03:29:01.325Z,15.60
2022-10-17T03:30:01.298Z,16.20
2022-10-17T03:31:06.417Z,15.67
2022-10-17T03:32:01.272Z,14.27
2022-10-17T03:33:01.099Z,14.43
2022-10-17T03:34:02.237Z,16.53
2022-10-17T03:35:01.036Z,15.20
2022-10-17T03:36:04.349Z,16.17
2022-10-17T03:37:01.416Z,15.90
2022-10-17T03:38:01.294Z,16.10
2022-10-17T03:39:01.291Z,13.83
2022-10-17T03:40:01.493Z,16.17
2022-10-17T03:41:01.363Z,16.53
2022-10-17T03:42:01.258Z,14.80
2022-10-17T03:43:00.990Z,14.90
2022-10-17T03:44:01.220Z,16.30
2022-10-17T03:45:01.261Z,16.67
2022-10-17T03:46:01.800Z,15.13
2022-10-17T03:47:00.986Z,17.03
2022-10-17T03:48:01.266Z,17.50
2022-10-17T03:49:01.066Z,17.13
2022-10-17T03:50:01.004Z,14.03
2022-10-17T03:51:03.102Z,16.07
2022-10-17T03:52:01.264Z,17.77
2022-10-17T03:53:01.249Z,15.07
2022-10-17T03:54:01.790Z,16.17
2022-10-17T03:55:01.591Z,15.27
2022-10-17T03:56:09.708Z,15.70
2022-10-17T03:57:00.933Z,14.80
2022-10-17T03:58:01.235Z,15.97
2022-10-17T03:59:01.227Z,15.80
2022-10-17T04:00:01.036Z,15.30
2022-10-17T04:01:03.749Z,15.40
2022-10-17T04:02:00.932Z,15.60
2022-10-17T04:03:00.920Z,15.67
2022-10-17T04:04:00.948Z,12.97
2022-10-17T04:05:01.591Z,15.20
2022-10-17T04:06:02.888Z,13.93
2022-10-17T04:07:01.269Z,15.90
2022-10-17T04:08:03.981Z,15.57
2022-10-17T04:09:01.707Z,15.83
2022-10-17T04:10:01.234Z,17.20
2022-10-17T04:11:02.637Z,14.77
2022-10-17T04:12:01.301Z,16.53
2022-10-17T04:13:01.262Z,15.67
2022-10-17T04:14:01.320Z,14.63
2022-10-17T04:15:01.300Z,15.30
2022-10-17T04:16:03.544Z,14.53
2022-10-17T04:17:01.502Z,14.90
2022-10-17T04:18:00.981Z,16.17
2022-10-17T04:19:01.583Z,16.43
2022-10-17T04:20:01.433Z,16.40
2022-10-17T04:21:01.873Z,16.23
2022-10-17T04:22:01.263Z,15.77
2022-10-17T04:23:00.947Z,13.70
2022-10-17T04:24:00.978Z,15.97
2022-10-17T04:25:01.311Z,15.60
2022-10-17T04:26:02.068Z,16.30
2022-10-17T04:27:01.234Z,14.87
2022-10-17T04:28:01.309Z,15.27
2022-10-17T04:29:01.237Z,14.00
2022-10-17T04:30:01.249Z,14.57
2022-10-17T04:31:03.161Z,15.70
2022-10-17T04:32:00.920Z,14.80
2022-10-17T04:33:01.255Z,13.90
2022-10-17T04:34:01.254Z,15.60
2022-10-17T04:35:00.936Z,17.60
2022-10-17T04:36:03.858Z,14.47
2022-10-17T04:37:00.968Z,14.47
2022-10-17T04:38:00.929Z,13.97
2022-10-17T04:39:01.698Z,15.57
2022-10-17T04:40:00.934Z,16.27
2022-10-17T04:41:02.410Z,17.27
2022-10-17T04:42:00.939Z,15.37
2022-10-17T04:43:01.229Z,17.43
2022-10-17T04:44:01.241Z,14.73
2022-10-17T04:45:01.229Z,15.77
2022-10-17T04:46:03.338Z,13.63
2022-10-17T04:47:00.957Z,15.17
2022-10-17T04:48:00.926Z,15.83
2022-10-17T04:49:01.734Z,17.50
2022-10-17T04:50:02.400Z,16.17
2022-10-17T04:51:03.906Z,14.43
2022-10-17T04:52:00.980Z,16.37
2022-10-17T04:53:01.264Z,13.87
2022-10-17T04:54:01.260Z,16.83
2022-10-17T04:55:00.928Z,17.83
2022-10-17T04:56:07.041Z,17.33
2022-10-17T04:57:01.246Z,15.63
2022-10-17T04:58:01.211Z,15.07
2022-10-17T04:59:01.259Z,17.03
2022-10-17T05:00:01.076Z,14.50
2022-10-17T05:01:04.471Z,13.23
2022-10-17T05:02:01.027Z,17.83
2022-10-17T05:03:00.987Z,17.57
2022-10-17T05:04:00.954Z,15.13
2022-10-17T05:05:00.962Z,16.37
2022-10-17T05:06:05.408Z,16.90
2022-10-17T05:07:01.396Z,15.03
2022-10-17T05:08:00.968Z,16.50
2022-10-17T05:09:00.936Z,17.37
2022-10-17T05:10:01.242Z,18.20
2022-10-17T05:11:01.784Z,16.73
2022-10-17T05:12:01.086Z,16.33
2022-10-17T05:13:01.221Z,15.20
2022-10-17T05:14:02.119Z,16.40
2022-10-17T05:15:00.919Z,18.67
2022-10-17T05:16:01.233Z,17.33
2022-10-17T05:17:01.008Z,15.47
2022-10-17T05:18:00.998Z,17.00
2022-10-17T05:19:01.595Z,17.40
2022-10-17T05:20:00.933Z,18.00
2022-10-17T05:21:03.659Z,16.17
2022-10-17T05:22:01.228Z,16.90
2022-10-17T05:23:02.046Z,16.20
2022-10-17T05:24:00.911Z,17.87
2022-10-17T05:25:01.227Z,16.03
2022-10-17T05:26:01.222Z,14.67
2022-10-17T05:27:00.939Z,16.17
2022-10-17T05:28:01.216Z,17.97
2022-10-17T05:29:01.292Z,16.90
2022-10-17T05:30:00.934Z,18.17
2022-10-17T05:31:02.319Z,18.53
2022-10-17T05:33:01.885Z,15.97
2022-10-17T05:34:01.235Z,17.10
2022-10-17T05:35:01.000Z,15.57
2022-10-17T05:36:01.631Z,16.40
2022-10-17T05:37:01.260Z,15.53
2022-10-17T05:38:01.332Z,16.40
2022-10-17T05:39:00.937Z,15.13
2022-10-17T05:40:01.340Z,17.70
2022-10-17T05:41:03.229Z,16.27
2022-10-17T05:42:01.329Z,15.80
2022-10-17T05:43:01.237Z,15.97
2022-10-17T05:44:04.629Z,15.63
2022-10-17T05:45:01.145Z,15.93
2022-10-17T05:46:02.783Z,14.87
2022-10-17T05:47:01.212Z,14.37
2022-10-17T05:48:01.254Z,17.30
2022-10-17T05:49:00.939Z,15.40
2022-10-17T05:50:00.927Z,15.00
2022-10-17T05:51:04.166Z,15.87
2022-10-17T05:52:01.494Z,16.43
2022-10-17T05:53:00.945Z,16.87
2022-10-17T05:54:01.005Z,14.90
2022-10-17T05:55:01.275Z,18.23
2022-10-17T05:56:03.510Z,15.30
2022-10-17T05:57:01.310Z,15.33
2022-10-17T05:58:01.774Z,16.70
2022-10-17T05:59:01.778Z,15.77
2022-10-17T06:00:01.345Z,17.13
2022-10-17T06:01:03.789Z,18.10
2022-10-17T06:02:01.036Z,15.43
2022-10-17T06:03:00.917Z,15.60
2022-10-17T06:04:01.219Z,14.70
2022-10-17T06:05:00.947Z,15.40
2022-10-17T06:06:04.846Z,18.03
2022-10-17T06:07:01.114Z,15.60
2022-10-17T06:08:02.041Z,17.70
2022-10-17T06:09:00.929Z,15.67
2022-10-17T06:10:01.279Z,16.00
2022-10-17T06:11:04.824Z,15.40
2022-10-17T06:12:00.955Z,16.17
2022-10-17T06:13:01.234Z,18.00
2022-10-17T06:14:01.581Z,16.67
2022-10-17T06:15:01.227Z,15.80
2022-10-17T06:16:01.366Z,18.23
2022-10-17T06:17:01.286Z,18.80
2022-10-17T06:18:01.700Z,16.43
2022-10-17T06:19:01.250Z,16.50
2022-10-17T06:20:01.403Z,15.10
2022-10-17T06:21:02.664Z,15.13
2022-10-17T06:22:00.922Z,14.90
2022-10-17T06:23:00.930Z,15.33
2022-10-17T06:24:01.258Z,17.67
2022-10-17T06:25:01.302Z,16.23
2022-10-17T06:26:03.115Z,17.47
2022-10-17T06:27:01.398Z,15.43
2022-10-17T06:28:00.963Z,15.27
2022-10-17T06:29:01.710Z,15.17
2022-10-17T06:30:01.242Z,15.17
2022-10-17T06:31:04.736Z,15.40
2022-10-17T06:32:00.935Z,16.60
2022-10-17T06:33:00.929Z,19.27
2022-10-17T06:34:01.193Z,16.73
2022-10-17T06:35:01.273Z,16.87
2022-10-17T06:36:02.108Z,18.47
2022-10-17T06:37:00.948Z,15.70
2022-10-17T06:38:02.434Z,17.10
2022-10-17T06:39:01.226Z,14.70
2022-10-17T06:40:01.528Z,19.13
2022-10-17T06:41:04.049Z,15.70
2022-10-17T06:42:02.408Z,18.10
2022-10-17T06:43:00.929Z,17.37
2022-10-17T06:44:00.922Z,16.60
2022-10-17T06:45:00.967Z,18.10
2022-10-17T06:46:01.256Z,14.57
2022-10-17T06:47:01.045Z,17.63
2022-10-17T06:48:02.147Z,16.40
2022-10-17T06:49:00.997Z,14.90
2022-10-17T06:50:01.233Z,16.37
2022-10-17T06:51:02.156Z,15.87
2022-10-17T06:52:00.972Z,16.13
2022-10-17T06:53:01.344Z,15.50
2022-10-17T06:54:01.409Z,16.60
2022-10-17T06:55:00.949Z,14.97
2022-10-17T06:56:02.179Z,16.87
2022-10-17T06:57:01.315Z,16.90
2022-10-17T06:58:01.215Z,15.47
2022-10-17T06:59:00.933Z,16.63
2022-10-17T07:00:01.059Z,16.37
2022-10-17T07:01:02.923Z,15.20
2022-10-17T07:02:02.101Z,16.37
2022-10-17T07:03:00.917Z,17.23
2022-10-17T07:04:00.945Z,18.23
2022-10-17T07:05:00.938Z,16.77
2022-10-17T07:06:01.714Z,19.00
2022-10-17T07:07:01.253Z,16.40
2022-10-17T07:08:01.131Z,18.63
2022-10-17T07:09:00.930Z,16.10
2022-10-17T07:10:01.348Z,15.27
2022-10-17T07:11:08.911Z,18.03
2022-10-17T07:12:01.804Z,16.10
2022-10-17T07:13:01.140Z,16.10
2022-10-17T07:14:01.644Z,16.00
2022-10-17T07:15:01.300Z,15.20
2022-10-17T07:16:00.949Z,18.13
2022-10-17T07:17:01.692Z,15.03
2022-10-17T07:18:00.929Z,16.20
2022-10-17T07:19:01.437Z,20.27
2022-10-17T07:20:00.957Z,18.73
2022-10-17T07:21:01.542Z,17.73
2022-10-17T07:22:00.935Z,17.07
2022-10-17T07:23:01.640Z,17.40
2022-10-17T07:24:01.448Z,21.27
2022-10-17T07:25:01.226Z,17.43
2022-10-17T07:26:02.033Z,15.70
2022-10-17T07:27:01.293Z,18.00
2022-10-17T07:28:01.234Z,16.03
2022-10-17T07:29:01.336Z,17.43
2022-10-17T07:30:00.929Z,18.53
2022-10-17T07:31:03.965Z,16.60
2022-10-17T07:32:00.930Z,15.80
2022-10-17T07:33:00.944Z,18.30
2022-10-17T07:34:01.368Z,16.87
2022-10-17T07:35:01.177Z,16.87
2022-10-17T07:36:02.558Z,17.50
2022-10-17T07:37:01.586Z,15.50
2022-10-17T07:38:00.926Z,18.73
2022-10-17T07:39:00.916Z,17.13
2022-10-17T07:40:01.312Z,18.87
2022-10-17T07:41:03.526Z,17.67
2022-10-17T07:42:01.263Z,18.43
2022-10-17T07:43:01.389Z,16.27
2022-10-17T07:44:01.255Z,16.63
2022-10-17T07:45:01.270Z,15.87
2022-10-17T07:46:02.283Z,15.77
2022-10-17T07:47:00.943Z,17.80
2022-10-17T07:48:01.209Z,17.83
2022-10-17T07:49:01.246Z,18.13
2022-10-17T07:50:01.384Z,16.10
2022-10-17T07:51:02.351Z,16.00
2022-10-17T07:52:01.226Z,16.10
2022-10-17T07:53:00.932Z,15.43
2022-10-17T07:54:01.249Z,14.83
2022-10-17T07:55:00.991Z,16.70
2022-10-17T07:56:04.898Z,16.80
2022-10-17T07:57:01.587Z,16.20
2022-10-17T07:58:00.920Z,15.67
2022-10-17T07:59:02.796Z,15.77
2022-10-17T08:00:00.982Z,14.97
2022-10-17T08:02:01.414Z,17.13
2022-10-17T08:03:00.949Z,15.93
2022-10-17T08:04:00.996Z,16.37
2022-10-17T08:05:00.947Z,18.03
2022-10-17T08:06:02.856Z,17.10
2022-10-17T08:07:11.944Z,16.60
2022-10-17T08:08:01.551Z,13.87
2022-10-17T08:09:00.939Z,15.37
2022-10-17T08:10:01.344Z,15.40
2022-10-17T08:11:03.280Z,17.03
2022-10-17T08:12:00.918Z,16.13
2022-10-17T08:13:01.515Z,16.30
2022-10-17T08:14:01.247Z,17.13
2022-10-17T08:15:01.308Z,16.47
2022-10-17T08:16:02.416Z,15.10
2022-10-17T08:17:01.271Z,16.40
2022-10-17T08:18:01.242Z,15.37
2022-10-17T08:19:02.291Z,16.97
2022-10-17T08:20:01.310Z,15.97
2022-10-17T08:21:02.894Z,16.40
2022-10-17T08:22:00.926Z,15.27
2022-10-17T08:23:00.933Z,18.47
2022-10-17T08:24:01.267Z,17.77
2022-10-17T08:25:01.236Z,15.63
2022-10-17T08:26:02.905Z,18.67
2022-10-17T08:27:01.303Z,17.90
2022-10-17T08:28:00.982Z,17.10
2022-10-17T08:29:01.034Z,16.73
2022-10-17T08:30:01.920Z,17.53
2022-10-17T08:31:04.192Z,17.57
2022-10-17T08:32:02.348Z,17.33
2022-10-17T08:33:01.373Z,16.07
2022-10-17T08:34:00.918Z,14.47
2022-10-17T08:35:00.932Z,17.30
2022-10-17T08:36:03.239Z,14.63
2022-10-17T08:37:01.045Z,15.00
2022-10-17T08:38:00.998Z,19.97
2022-10-17T08:39:00.948Z,15.70
2022-10-17T08:40:01.270Z,16.60
2022-10-17T08:41:04.529Z,14.90
2022-10-17T08:42:15.108Z,13.80
2022-10-17T08:43:16.934Z,17.37
2022-10-17T08:44:10.709Z,16.87
2022-10-17T08:45:10.416Z,16.33
2022-10-17T08:46:04.383Z,19.17
2022-10-17T08:47:05.268Z,15.07
2022-10-17T08:48:04.975Z,18.37
2022-10-17T08:49:03.552Z,14.90
2022-10-17T08:50:03.641Z,14.87
2022-10-17T08:51:10.183Z,16.77
2022-10-17T08:52:06.524Z,17.80
2022-10-17T08:53:06.979Z,16.80
2022-10-17T08:54:07.507Z,18.23
2022-10-17T08:55:01.403Z,15.17
2022-10-17T08:56:15.378Z,17.80
2022-10-17T08:57:01.414Z,15.73
2022-10-17T08:58:01.345Z,16.50
2022-10-17T08:59:00.980Z,16.43
2022-10-17T09:00:01.027Z,14.60
2022-10-17T09:01:11.930Z,13.87
2022-10-17T09:02:13.145Z,15.57
2022-10-17T09:03:15.816Z,17.17
2022-10-17T09:04:19.915Z,17.23
2022-10-17T09:05:23.989Z,16.43
2022-10-17T09:06:12.261Z,15.70
2022-10-17T09:07:05.371Z,13.37
2022-10-17T09:08:12.864Z,17.70
2022-10-17T09:09:19.829Z,15.37
2022-10-17T09:10:08.846Z,16.13
2022-10-17T09:11:14.087Z,14.73
2022-10-17T09:12:11.095Z,14.50
2022-10-17T09:13:13.337Z,14.73
2022-10-17T09:14:15.728Z,15.43
2022-10-17T09:15:11.898Z,14.73
2022-10-17T09:16:20.415Z,19.80
2022-10-17T09:17:13.961Z,15.00
2022-10-17T09:18:06.976Z,17.23
2022-10-17T09:19:10.975Z,13.93
2022-10-17T09:20:09.225Z,13.70
2022-10-17T09:21:09.867Z,17.30
2022-10-17T09:22:05.603Z,16.03
2022-10-17T09:23:08.192Z,15.50
2022-10-17T09:24:09.731Z,16.43
2022-10-17T09:25:04.375Z,15.83
2022-10-17T09:26:01.382Z,17.40
2022-10-17T09:27:02.249Z,15.70
2022-10-17T09:28:10.224Z,15.13
2022-10-17T09:29:01.566Z,14.50
2022-10-17T09:30:40.096Z,15.63
2022-10-17T09:31:04.354Z,15.07
2022-10-17T09:32:04.541Z,14.17
2022-10-17T09:33:22.923Z,14.90
2022-10-17T09:34:02.829Z,16.80
2022-10-17T09:35:01.091Z,15.93
2022-10-17T09:36:03.739Z,18.87
2022-10-17T09:37:02.130Z,15.50
2022-10-17T09:38:00.954Z,14.60
2022-10-17T09:39:03.366Z,16.70
2022-10-17T09:40:01.235Z,14.20
2022-10-17T09:41:02.210Z,15.53
2022-10-17T09:42:02.121Z,16.20
2022-10-17T09:43:05.647Z,14.53
2022-10-17T09:44:13.488Z,14.13
2022-10-17T09:45:13.884Z,16.50
2022-10-17T09:46:08.048Z,16.37
2022-10-17T09:47:15.543Z,18.83
2022-10-17T09:48:10.316Z,17.43
2022-10-17T09:49:11.242Z,16.60
2022-10-17T09:50:01.342Z,17.33
2022-10-17T09:51:14.713Z,15.03
2022-10-17T09:52:03.443Z,14.13
2022-10-17T09:53:08.877Z,15.43
2022-10-17T09:54:04.906Z,15.07
2022-10-17T09:55:04.624Z,16.47
2022-10-17T09:56:03.469Z,15.33
2022-10-17T09:57:04.666Z,14.90
2022-10-17T09:58:03.946Z,16.73
2022-10-17T09:59:00.937Z,14.90
2022-10-17T10:00:04.493Z,14.43
2022-10-17T10:01:19.551Z,15.03
2022-10-17T10:02:08.185Z,18.80
2022-10-17T10:03:12.691Z,15.43
2022-10-17T10:04:10.697Z,15.40
2022-10-17T10:05:04.986Z,14.60
2022-10-17T10:06:04.285Z,14.37
2022-10-17T10:07:03.140Z,14.97
2022-10-17T10:08:03.989Z,17.33
2022-10-17T10:09:02.533Z,15.77
2022-10-17T10:10:04.108Z,15.70
2022-10-17T10:11:04.422Z,15.80
2022-10-17T10:12:05.981Z,14.60
2022-10-17T10:13:05.811Z,16.13
2022-10-17T10:14:11.224Z,13.70
2022-10-17T10:15:01.525Z,16.33
2022-10-17T10:16:13.589Z,16.80
2022-10-17T10:17:03.497Z,17.90
2022-10-17T10:18:01.783Z,14.63
2022-10-17T10:19:03.696Z,15.87
2022-10-17T10:20:02.992Z,16.23
2022-10-17T10:21:06.012Z,16.87
2022-10-17T10:22:03.420Z,16.77
2022-10-17T10:23:06.798Z,16.50
2022-10-17T10:24:05.535Z,16.30
2022-10-17T10:25:14.042Z,18.10
2022-10-17T10:26:04.975Z,16.17
2022-10-17T10:27:03.499Z,16.60
2022-10-17T10:28:01.862Z,15.30
2022-10-17T10:29:04.109Z,15.60
2022-10-17T10:30:01.762Z,16.03
2022-10-17T10:31:05.511Z,16.43
2022-10-17T10:32:11.402Z,15.90
2022-10-17T10:33:01.241Z,16.13
2022-10-17T10:34:12.627Z,16.33
2022-10-17T10:35:06.082Z,14.80
2022-10-17T10:36:04.157Z,15.17
2022-10-17T10:37:03.841Z,13.80
2022-10-17T10:38:03.418Z,14.37
2022-10-17T10:39:04.014Z,15.47
2022-10-17T10:40:04.585Z,15.00
2022-10-17T10:41:04.799Z,15.00
2022-10-17T10:42:05.128Z,14.57
2022-10-17T10:43:04.855Z,15.57
2022-10-17T10:44:01.014Z,14.17
2022-10-17T10:45:19.167Z,17.63
2022-10-17T10:46:02.798Z,15.60
2022-10-17T10:47:16.424Z,16.03
2022-10-17T10:48:04.230Z,16.10
2022-10-17T10:49:01.812Z,15.47
2022-10-17T10:50:20.426Z,16.50
2022-10-17T10:51:04.531Z,16.07
2022-10-17T10:52:03.742Z,18.40
2022-10-17T10:53:16.194Z,12.33
2022-10-17T10:54:08.011Z,14.83
2022-10-17T10:55:13.612Z,15.07
2022-10-17T10:56:07.297Z,16.30
2022-10-17T10:57:06.094Z,19.17
2022-10-17T10:58:05.818Z,15.73
2022-10-17T10:59:05.827Z,15.17
2022-10-17T11:00:09.117Z,16.50
2022-10-17T11:01:06.180Z,14.70
2022-10-17T11:02:10.954Z,18.53
2022-10-17T11:03:12.592Z,15.20
2022-10-17T11:04:15.569Z,15.23
2022-10-17T11:05:07.852Z,15.20
2022-10-17T11:06:05.711Z,15.93
2022-10-17T11:07:06.712Z,15.17
2022-10-17T11:08:08.342Z,17.53
2022-10-17T11:09:15.465Z,14.97
2022-10-17T11:10:11.286Z,16.33
2022-10-17T11:11:13.024Z,15.13
2022-10-17T11:12:09.957Z,17.00
2022-10-17T11:13:06.016Z,13.80
2022-10-17T11:14:07.437Z,16.63
2022-10-17T11:15:08.769Z,15.90
2022-10-17T11:16:11.999Z,15.13
2022-10-17T11:17:09.736Z,17.13
2022-10-17T11:18:05.724Z,16.70
2022-10-17T11:19:09.506Z,15.23
2022-10-17T11:20:10.252Z,15.30
2022-10-17T11:21:10.905Z,15.67
2022-10-17T11:22:08.640Z,17.30
2022-10-17T11:23:14.963Z,16.70
2022-10-17T11:24:09.380Z,17.73
2022-10-17T11:25:13.795Z,15.90
2022-10-17T11:26:06.339Z,15.33
2022-10-17T11:27:04.580Z,15.60
2022-10-17T11:28:04.840Z,15.17
2022-10-17T11:29:04.106Z,16.30
2022-10-17T11:30:01.371Z,16.53
2022-10-17T11:31:07.247Z,16.53
2022-10-17T11:32:06.087Z,15.27
2022-10-17T11:33:04.585Z,16.50
2022-10-17T11:34:05.905Z,15.33
2022-10-17T11:35:06.443Z,17.63
2022-10-17T11:36:04.488Z,16.40
2022-10-17T11:37:09.004Z,16.17
2022-10-17T11:38:13.824Z,17.93
2022-10-17T11:39:06.782Z,17.20
2022-10-17T11:40:05.589Z,14.57
2022-10-17T11:41:03.232Z,16.63
2022-10-17T11:42:06.114Z,17.60
2022-10-17T11:43:04.501Z,14.60
2022-10-17T11:44:06.920Z,19.37
2022-10-17T11:45:08.721Z,17.17
2022-10-17T11:46:04.794Z,15.27
2022-10-17T11:47:11.164Z,14.63
2022-10-17T11:48:07.164Z,14.77
2022-10-17T11:49:09.406Z,15.87
2022-10-17T11:52:11.236Z,13.80
2022-10-17T11:53:08.270Z,15.40
2022-10-17T11:54:11.017Z,16.63
2022-10-17T11:55:09.316Z,14.20
2022-10-17T11:56:01.771Z,15.63
2022-10-17T11:57:17.627Z,15.93
2022-10-17T11:58:17.688Z,13.30
2022-10-17T11:59:12.454Z,15.77
2022-10-17T12:00:16.389Z,20.03
2022-10-17T12:01:12.691Z,18.10
2022-10-17T12:02:07.747Z,15.87
2022-10-17T12:03:10.693Z,14.03
2022-10-17T12:04:16.269Z,15.33
2022-10-17T12:05:09.213Z,13.27
2022-10-17T12:06:11.150Z,17.30
2022-10-17T12:07:13.396Z,15.20
2022-10-17T12:08:08.667Z,15.60
2022-10-17T12:09:10.945Z,15.60
2022-10-17T12:10:16.579Z,11.97
2022-10-17T12:11:08.582Z,15.07
2022-10-17T12:12:02.866Z,16.17
2022-10-17T12:13:20.415Z,15.30
2022-10-17T12:14:04.948Z,16.63
2022-10-17T12:15:20.439Z,13.10
2022-10-17T12:16:20.424Z,14.67
2022-10-17T12:17:02.338Z,12.23
2022-10-17T12:18:02.287Z,15.23
2022-10-17T12:19:19.023Z,14.87
2022-10-17T12:20:21.253Z,12.53
2022-10-17T12:21:01.449Z,15.57
2022-10-17T12:22:13.827Z,12.93
2022-10-17T12:23:20.430Z,15.47
2022-10-17T12:24:00.954Z,12.80
2022-10-17T12:25:03.207Z,16.13
2022-10-17T12:26:04.671Z,16.13
2022-10-17T12:27:20.411Z,13.03
2022-10-17T12:28:10.497Z,13.90
2022-10-17T12:29:01.355Z,13.40
2022-10-17T12:30:04.137Z,15.20
2022-10-17T12:31:03.620Z,16.50
2022-10-17T12:32:10.766Z,15.93
2022-10-17T12:33:07.166Z,15.17
2022-10-17T12:34:03.297Z,13.17
2022-10-17T12:35:01.468Z,14.33
2022-10-17T12:36:20.423Z,15.03
2022-10-17T12:37:01.225Z,15.77
2022-10-17T12:38:18.732Z,16.70
2022-10-17T12:39:20.404Z,15.03
2022-10-17T12:40:01.254Z,17.40
2022-10-17T12:41:02.482Z,17.80
2022-10-17T12:42:00.938Z,14.40
2022-10-17T12:43:02.465Z,19.00
2022-10-17T12:44:01.427Z,18.87
2022-10-17T12:45:01.319Z,16.50
2022-10-17T12:46:02.517Z,18.50
2022-10-17T12:47:21.025Z,16.43
2022-10-17T12:48:01.230Z,16.27
2022-10-17T12:49:04.051Z,22.67
2022-10-17T12:50:01.228Z,16.57
2022-10-17T12:51:30.686Z,20.13
2022-10-17T12:52:16.143Z,19.60
2022-10-17T12:53:05.546Z,17.37
2022-10-17T12:54:09.811Z,20.20
2022-10-17T12:55:12.560Z,17.17
2022-10-17T12:56:07.881Z,16.47
2022-10-17T12:57:00.997Z,18.60